Time;durP1;ratioP1;P1;durP2;ratioP2;P2;SDS_P1;SDS_P2;PMS_P1;PMS_P2;Temp;Humidity;BMP_temperature;BMP_pressure;BME280_temperature;BME280_humidity;BME280_pressure;Samples;Min_cycle;Max_cycle;Signal;HPM_P1;HPM_P2
2023/07/19 00:02:12;;;;;;;5.03;2.10;;;;;;;;;;5100658;27;20402;-60
2023/07/19 00:04:37;;;;;;;5.87;2.13;;;;;;;;;;5102220;27;20051;-59
2023/07/19 00:07:02;;;;;;;7.27;2.13;;;;;;;;;;5102187;27;20084;-60
2023/07/19 00:09:27;;;;;;;5.77;2.07;;;;;;;;;;5101919;27;20038;-59
2023/07/19 00:11:52;;;;;;;5.77;2.10;;;;;;;;;;5101408;27;20027;-61
2023/07/19 00:14:18;;;;;;;6.77;2.17;;;;;;;;;;5101577;27;20266;-61
2023/07/19 00:16:43;;;;;;;4.65;1.90;;;;;;;;;;5102882;27;20502;-58
2023/07/19 00:19:09;;;;;;;5.20;1.83;;;;;;;;;;5101869;27;20444;-61
2023/07/19 00:21:34;;;;;;;4.90;1.70;;;;;;;;;;5101242;27;20035;-60
2023/07/19 00:23:59;;;;;;;4.80;1.80;;;;;;;;;;5101329;27;20055;-58
2023/07/19 00:26:25;;;;;;;6.63;2.10;;;;;;;;;;5101421;27;20061;-63
2023/07/19 00:28:50;;;;;;;5.35;1.83;;;;;;;;;;5102326;27;20038;-61
2023/07/19 00:31:15;;;;;;;5.63;1.90;;;;;;;;;;5103787;27;20039;-60
2023/07/19 00:33:40;;;;;;;5.25;2.10;;;;;;;;;;5101620;27;20027;-61
2023/07/19 00:36:05;;;;;;;4.00;1.70;;;;;;;;;;5104096;27;20170;-58
2023/07/19 00:38:31;;;;;;;4.37;2.00;;;;;;;;;;5103182;27;20035;-59
2023/07/19 00:40:56;;;;;;;4.87;1.70;;;;;;;;;;5101850;27;20041;-59
2023/07/19 00:43:21;;;;;;;4.40;1.83;;;;;;;;;;5102643;27;20038;-60
2023/07/19 00:45:49;;;;;;;5.20;1.90;;;;;;;;;;5100698;27;20037;-60
2023/07/19 00:48:16;;;;;;;4.90;1.95;;;;;;;;;;5102333;27;20054;-60
2023/07/19 00:50:42;;;;;;;4.72;1.65;;;;;;;;;;5100595;27;20457;-58
2023/07/19 00:53:07;;;;;;;5.07;2.10;;;;;;;;;;5099856;27;20026;-59
2023/07/19 00:55:32;;;;;;;5.13;1.67;;;;;;;;;;5100139;27;20026;-59
2023/07/19 00:57:58;;;;;;;5.00;1.90;;;;;;;;;;5100486;27;20012;-60
2023/07/19 01:00:23;;;;;;;5.68;2.03;;;;;;;;;;5101283;27;20103;-60
2023/07/19 01:02:49;;;;;;;5.65;1.90;;;;;;;;;;5098965;27;20024;-60
2023/07/19 01:05:14;;;;;;;6.95;1.88;;;;;;;;;;5100791;27;20033;-60
2023/07/19 01:07:39;;;;;;;5.90;2.30;;;;;;;;;;5100713;27;20023;-58
2023/07/19 01:10:05;;;;;;;4.43;1.53;;;;;;;;;;5100707;27;20081;-59
2023/07/19 01:12:30;;;;;;;4.35;1.90;;;;;;;;;;5098983;27;20028;-58
2023/07/19 01:14:55;;;;;;;4.50;1.87;;;;;;;;;;5100952;27;20042;-59
2023/07/19 01:17:21;;;;;;;4.93;1.70;;;;;;;;;;5100839;27;20522;-59
2023/07/19 01:19:46;;;;;;;6.23;1.73;;;;;;;;;;5100918;27;20111;-60
2023/07/19 01:22:11;;;;;;;4.90;1.73;;;;;;;;;;5100267;27;20026;-60
2023/07/19 01:24:38;;;;;;;5.25;1.77;;;;;;;;;;5100158;27;20073;-59
2023/07/19 01:27:04;;;;;;;5.30;1.80;;;;;;;;;;5100836;27;20023;-60
2023/07/19 01:29:29;;;;;;;4.85;1.60;;;;;;;;;;5101216;27;20027;-60
2023/07/19 01:31:54;;;;;;;6.13;1.77;;;;;;;;;;5100857;27;20042;-59
2023/07/19 01:34:19;;;;;;;4.70;1.80;;;;;;;;;;5099023;27;20111;-61
2023/07/19 01:36:45;;;;;;;6.10;1.57;;;;;;;;;;5100352;27;20502;-59
2023/07/19 01:39:10;;;;;;;4.35;1.50;;;;;;;;;;5100572;27;20035;-59
2023/07/19 01:41:35;;;;;;;4.83;1.80;;;;;;;;;;5099926;27;20019;-58
2023/07/19 01:44:00;;;;;;;4.32;1.60;;;;;;;;;;5099276;27;20867;-59
2023/07/19 01:46:25;;;;;;;5.45;1.85;;;;;;;;;;5099534;27;20032;-60
2023/07/19 01:48:50;;;;;;;5.88;1.98;;;;;;;;;;5100529;27;20071;-57
2023/07/19 01:51:16;;;;;;;3.67;1.40;;;;;;;;;;5100801;27;20470;-61
2023/07/19 01:53:41;;;;;;;4.60;1.67;;;;;;;;;;5099990;27;20031;-61
2023/07/19 01:56:06;;;;;;;4.85;1.42;;;;;;;;;;5099501;27;20119;-60
2023/07/19 01:58:31;;;;;;;4.32;1.65;;;;;;;;;;5099874;27;20062;-61
2023/07/19 02:00:56;;;;;;;5.57;2.40;;;;;;;;;;5099451;27;20028;-61
2023/07/19 02:03:22;;;;;;;4.53;1.90;;;;;;;;;;5099401;27;20030;-60
2023/07/19 02:05:57;;;;;;;7.50;2.00;;;;;;;;;;5098509;27;20031;-60
2023/07/19 02:08:22;;;;;;;6.20;2.05;;;;;;;;;;5100396;27;20449;-60
2023/07/19 02:10:47;;;;;;;5.30;1.90;;;;;;;;;;5099408;27;20031;-59
2023/07/19 02:13:12;;;;;;;4.70;1.90;;;;;;;;;;5099074;27;20023;-59
2023/07/19 02:15:37;;;;;;;4.57;1.87;;;;;;;;;;5099043;27;20795;-59
2023/07/19 02:18:03;;;;;;;4.60;1.80;;;;;;;;;;5099744;27;20031;-59
2023/07/19 02:20:28;;;;;;;5.70;1.80;;;;;;;;;;5098847;27;20015;-62
2023/07/19 02:22:53;;;;;;;5.03;1.80;;;;;;;;;;5099346;27;20054;-59
2023/07/19 02:25:18;;;;;;;5.90;2.15;;;;;;;;;;5098077;27;20028;-60
2023/07/19 02:27:43;;;;;;;4.20;1.80;;;;;;;;;;5099163;27;20026;-59
2023/07/19 02:30:09;;;;;;;4.90;1.80;;;;;;;;;;5098690;27;20566;-60
2023/07/19 02:32:34;;;;;;;4.70;2.10;;;;;;;;;;5098167;27;20755;-59
2023/07/19 02:34:59;;;;;;;5.22;1.92;;;;;;;;;;5098692;27;20035;-59
2023/07/19 02:37:24;;;;;;;4.77;1.80;;;;;;;;;;5099613;27;20015;-60
2023/07/19 02:39:50;;;;;;;4.90;2.10;;;;;;;;;;5098877;27;20963;-61
2023/07/19 02:42:15;;;;;;;6.00;1.90;;;;;;;;;;5098881;27;20023;-58
2023/07/19 02:44:40;;;;;;;6.13;1.90;;;;;;;;;;5097927;27;20031;-59
2023/07/19 02:47:06;;;;;;;7.70;2.20;;;;;;;;;;5098964;27;20054;-60
2023/07/19 02:49:31;;;;;;;4.03;1.60;;;;;;;;;;5098724;27;20497;-59
2023/07/19 02:51:56;;;;;;;4.47;1.80;;;;;;;;;;5098969;27;20035;-58
2023/07/19 02:54:21;;;;;;;5.83;2.00;;;;;;;;;;5097951;27;20027;-58
2023/07/19 02:56:46;;;;;;;5.27;2.00;;;;;;;;;;5099044;27;20039;-59
2023/07/19 02:59:11;;;;;;;5.20;1.70;;;;;;;;;;5099032;27;20561;-59
2023/07/19 03:01:37;;;;;;;5.80;2.00;;;;;;;;;;5099055;27;20076;-58
2023/07/19 03:04:02;;;;;;;6.25;2.05;;;;;;;;;;5098577;27;20031;-61
2023/07/19 03:06:27;;;;;;;5.10;1.95;;;;;;;;;;5099312;27;20030;-60
2023/07/19 03:08:53;;;;;;;4.20;1.80;;;;;;;;;;5099285;27;20027;-58
2023/07/19 03:11:18;;;;;;;5.50;2.17;;;;;;;;;;5099241;27;20107;-60
2023/07/19 03:13:43;;;;;;;4.30;1.80;;;;;;;;;;5100529;27;20031;-61
2023/07/19 03:16:08;;;;;;;5.53;1.90;;;;;;;;;;5101317;27;20490;-58
2023/07/19 03:18:34;;;;;;;4.67;1.70;;;;;;;;;;5098051;27;20039;-59
2023/07/19 03:21:00;;;;;;;4.30;1.70;;;;;;;;;;5097170;28;20058;-58
2023/07/19 03:23:25;;;;;;;4.20;1.67;;;;;;;;;;5097624;27;20042;-58
2023/07/19 03:25:50;;;;;;;5.43;2.20;;;;;;;;;;5098447;28;20115;-59
2023/07/19 03:28:16;;;;;;;5.53;2.07;;;;;;;;;;5097760;28;20506;-61
2023/07/19 03:30:41;;;;;;;7.82;1.98;;;;;;;;;;5098775;28;20542;-61
2023/07/19 03:33:06;;;;;;;5.27;1.90;;;;;;;;;;5098388;28;20031;-60
2023/07/19 03:35:31;;;;;;;4.00;1.70;;;;;;;;;;5099458;27;20400;-60
2023/07/19 03:37:56;;;;;;;4.97;1.80;;;;;;;;;;5097746;28;20120;-58
2023/07/19 03:40:21;;;;;;;6.93;2.20;;;;;;;;;;5099673;28;20474;-59
2023/07/19 03:42:46;;;;;;;4.50;1.92;;;;;;;;;;5097823;28;20035;-59
2023/07/19 03:45:12;;;;;;;5.50;2.23;;;;;;;;;;5098726;27;20060;-59
2023/07/19 03:47:37;;;;;;;5.80;1.83;;;;;;;;;;5100499;28;20028;-59
2023/07/19 03:50:02;;;;;;;5.67;1.90;;;;;;;;;;5100149;28;20387;-58
2023/07/19 03:52:27;;;;;;;4.22;1.85;;;;;;;;;;5099483;28;20019;-60
2023/07/19 03:54:54;;;;;;;5.47;2.00;;;;;;;;;;5099000;28;20027;-61
2023/07/19 03:57:19;;;;;;;;;;;;;;;;;;5100626;27;20156;-60
2023/07/19 03:59:45;;;;;;;6.70;1.95;;;;;;;;;;5097376;28;19963;-59
2023/07/19 04:02:10;;;;;;;5.15;1.90;;;;;;;;;;5098822;27;20055;-60
2023/07/19 04:04:35;;;;;;;5.47;1.70;;;;;;;;;;5097330;27;20511;-59
2023/07/19 04:07:01;;;;;;;4.85;1.80;;;;;;;;;;5097760;27;20448;-60
2023/07/19 04:09:26;;;;;;;6.27;1.90;;;;;;;;;;5099726;28;20012;-60
2023/07/19 04:11:51;;;;;;;5.05;2.00;;;;;;;;;;5098479;28;20051;-60
2023/07/19 04:14:16;;;;;;;6.03;2.07;;;;;;;;;;5097561;28;20032;-60
2023/07/19 04:16:41;;;;;;;5.37;2.10;;;;;;;;;;5098344;28;20026;-61
2023/07/19 04:19:07;;;;;;;4.60;1.90;;;;;;;;;;5100563;27;20041;-60
2023/07/19 04:21:32;;;;;;;12.88;3.00;;;;;;;;;;5102111;27;20429;-61
2023/07/19 04:23:57;;;;;;;6.13;2.00;;;;;;;;;;5105198;27;20027;-61
2023/07/19 04:26:22;;;;;;;7.00;2.00;;;;;;;;;;5102346;27;20023;-60
2023/07/19 04:28:47;;;;;;;5.43;2.00;;;;;;;;;;5100772;27;20748;-60
2023/07/19 04:31:13;;;;;;;6.60;1.90;;;;;;;;;;5100708;27;20026;-59
2023/07/19 04:33:38;;;;;;;6.87;1.93;;;;;;;;;;5100286;27;20105;-60
2023/07/19 04:36:10;;;;;;;5.03;1.85;;;;;;;;;;5101737;27;20074;-60
2023/07/19 04:38:35;;;;;;;;;;;;;;;;;;5102802;27;20626;-61
2023/07/19 04:41:01;;;;;;;5.35;1.90;;;;;;;;;;5101215;27;20466;-61
2023/07/19 04:43:26;;;;;;;7.10;2.15;;;;;;;;;;5100552;27;20026;-57
2023/07/19 04:45:51;;;;;;;4.50;1.90;;;;;;;;;;5101387;27;20027;-60
2023/07/19 04:48:16;;;;;;;5.07;2.00;;;;;;;;;;5102044;27;20023;-61
2023/07/19 04:50:42;;;;;;;5.57;2.20;;;;;;;;;;5101424;27;20026;-61
2023/07/19 04:53:07;;;;;;;5.57;2.00;;;;;;;;;;5100125;27;20432;-59
2023/07/19 04:55:33;;;;;;;6.00;2.30;;;;;;;;;;5100897;27;20023;-60
2023/07/19 04:57:59;;;;;;;5.75;2.00;;;;;;;;;;5102777;27;20053;-60
2023/07/19 05:00:27;;;;;;;6.45;1.73;;;;;;;;;;5100531;27;20027;-61
2023/07/19 05:02:52;;;;;;;5.53;2.10;;;;;;;;;;5100633;27;20379;-61
2023/07/19 05:05:17;;;;;;;4.63;2.20;;;;;;;;;;5100274;27;20049;-60
2023/07/19 05:07:42;;;;;;;4.43;1.70;;;;;;;;;;5102063;27;20035;-60
2023/07/19 05:10:08;;;;;;;4.63;1.90;;;;;;;;;;5100789;27;20514;-60
2023/07/19 05:12:33;;;;;;;7.30;1.92;;;;;;;;;;5099550;27;20494;-58
2023/07/19 05:14:58;;;;;;;6.33;1.87;;;;;;;;;;5100603;27;20498;-60
2023/07/19 05:17:23;;;;;;;5.60;2.03;;;;;;;;;;5101173;27;20020;-61
2023/07/19 05:19:49;;;;;;;5.37;1.80;;;;;;;;;;5100243;27;20023;-61
2023/07/19 05:22:14;;;;;;;6.45;2.30;;;;;;;;;;5100880;27;20387;-58
2023/07/19 05:24:39;;;;;;;8.30;1.93;;;;;;;;;;5099394;27;20035;-59
2023/07/19 05:27:05;;;;;;;5.13;1.67;;;;;;;;;;5100387;27;20030;-60
2023/07/19 05:29:30;;;;;;;7.28;2.22;;;;;;;;;;5099777;27;20110;-59
2023/07/19 05:31:55;;;;;;;5.60;2.20;;;;;;;;;;5099135;27;20027;-59
2023/07/19 05:34:21;;;;;;;4.93;2.10;;;;;;;;;;5099633;27;21034;-62
2023/07/19 05:36:47;;;;;;;5.30;1.80;;;;;;;;;;5099401;27;20106;-58
2023/07/19 05:39:12;;;;;;;4.90;1.80;;;;;;;;;;5100620;27;20055;-59
2023/07/19 05:41:37;;;;;;;5.55;1.90;;;;;;;;;;5099840;27;20047;-60
2023/07/19 05:44:02;;;;;;;4.87;1.80;;;;;;;;;;5099624;27;20087;-60
2023/07/19 05:46:27;;;;;;;5.70;2.20;;;;;;;;;;5100273;27;20033;-60
2023/07/19 05:48:53;;;;;;;5.10;2.00;;;;;;;;;;5101190;27;20453;-60
2023/07/19 05:51:18;;;;;;;5.18;2.00;;;;;;;;;;5100063;27;20026;-60
2023/07/19 05:53:43;;;;;;;4.97;1.80;;;;;;;;;;5098686;27;20076;-62
2023/07/19 05:56:08;;;;;;;5.70;1.90;;;;;;;;;;5098596;27;20513;-62
2023/07/19 05:58:34;;;;;;;5.67;2.10;;;;;;;;;;5101499;27;20160;-61
2023/07/19 06:00:59;;;;;;;5.50;1.80;;;;;;;;;;5099895;27;20023;-59
2023/07/19 06:03:24;;;;;;;3.87;1.80;;;;;;;;;;5099144;27;21117;-58
2023/07/19 06:05:49;;;;;;;5.33;1.97;;;;;;;;;;5099035;27;20031;-60
2023/07/19 06:08:14;;;;;;;5.70;1.80;;;;;;;;;;5101211;27;20034;-60
2023/07/19 06:10:40;;;;;;;7.60;2.10;;;;;;;;;;5099759;27;20144;-60
2023/07/19 06:13:05;;;;;;;6.43;2.20;;;;;;;;;;5098582;27;20479;-60
2023/07/19 06:15:31;;;;;;;5.30;1.73;;;;;;;;;;5098621;27;20026;-60
2023/07/19 06:17:56;;;;;;;;;;;;;;;;;;5099058;27;20390;-60
2023/07/19 06:20:22;;;;;;;4.85;1.73;;;;;;;;;;5100138;27;20305;-61
2023/07/19 06:22:47;;;;;;;6.68;2.00;;;;;;;;;;5099170;27;20028;-61
2023/07/19 06:25:12;;;;;;;5.73;1.80;;;;;;;;;;5099130;27;20643;-60
2023/07/19 06:27:37;;;;;;;;;;;;;;;;;;5099697;27;20045;-61
2023/07/19 06:30:02;;;;;;;6.78;2.00;;;;;;;;;;5099664;27;19994;-61
2023/07/19 06:32:28;;;;;;;6.65;2.00;;;;;;;;;;5099847;27;20054;-61
2023/07/19 06:34:53;;;;;;;5.28;1.88;;;;;;;;;;5101525;27;20041;-63
2023/07/19 06:37:18;;;;;;;5.93;1.90;;;;;;;;;;5100539;27;20050;-60
2023/07/19 06:39:43;;;;;;;6.27;2.00;;;;;;;;;;5099637;27;20103;-61
2023/07/19 06:42:08;;;;;;;6.17;1.80;;;;;;;;;;5097843;27;20810;-61
2023/07/19 06:44:35;;;;;;;6.40;1.90;;;;;;;;;;5099905;27;20035;-59
2023/07/19 06:47:00;;;;;;;3.85;1.63;;;;;;;;;;5099693;27;20046;-60
2023/07/19 06:49:25;;;;;;;6.03;1.80;;;;;;;;;;5098881;27;20039;-59
2023/07/19 06:51:50;;;;;;;3.50;1.50;;;;;;;;;;5102646;27;20478;-61
2023/07/19 06:54:15;;;;;;;4.83;1.73;;;;;;;;;;5096291;27;20508;-61
2023/07/19 06:56:41;;;;;;;4.95;1.77;;;;;;;;;;5098303;27;20144;-60
2023/07/19 06:59:06;;;;;;;;;;;;;;;;;;5100542;27;20019;-60
2023/07/19 07:01:31;;;;;;;5.32;2.03;;;;;;;;;;5098516;27;19908;-60
2023/07/19 07:03:56;;;;;;;;;;;;;;;;;;5097699;27;20031;-61
2023/07/19 07:06:22;;;;;;;4.03;1.67;;;;;;;;;;5097408;27;19926;-59
2023/07/19 07:08:47;;;;;;;5.80;1.80;;;;;;;;;;5098687;27;20106;-60
2023/07/19 07:11:12;;;;;;;6.03;1.93;;;;;;;;;;5098342;27;20468;-61
2023/07/19 07:13:37;;;;;;;6.10;1.97;;;;;;;;;;5097688;27;20467;-60
2023/07/19 07:16:02;;;;;;;;;;;;;;;;;;5099802;27;20088;-61
2023/07/19 07:18:28;;;;;;;4.93;1.90;;;;;;;;;;5100180;28;19911;-60
2023/07/19 07:20:53;;;;;;;;;;;;;;;;;;5100460;27;20031;-60
2023/07/19 07:23:18;;;;;;;4.97;1.95;;;;;;;;;;5099527;27;19919;-61
2023/07/19 07:25:43;;;;;;;5.67;1.70;;;;;;;;;;5100691;28;20024;-61
2023/07/19 07:28:08;;;;;;;6.03;1.80;;;;;;;;;;5101584;27;20449;-61
2023/07/19 07:30:33;;;;;;;;;;;;;;;;;;5102470;27;20027;-61
2023/07/19 07:32:59;;;;;;;5.50;1.60;;;;;;;;;;5100736;27;19921;-61
2023/07/19 07:35:24;;;;;;;5.63;2.07;;;;;;;;;;5103506;28;20031;-59
2023/07/19 07:37:49;;;;;;;4.70;1.87;;;;;;;;;;5098635;28;20538;-61
2023/07/19 07:40:14;;;;;;;;;;;;;;;;;;5098071;28;20030;-62
2023/07/19 07:42:39;;;;;;;4.33;1.73;;;;;;;;;;5098110;28;20306;-60
2023/07/19 07:45:05;;;;;;;;;;;;;;;;;;5098888;28;20028;-61
2023/07/19 07:47:30;;;;;;;4.95;1.83;;;;;;;;;;5097962;28;19916;-60
2023/07/19 07:49:56;;;;;;;;;;;;;;;;;;5100126;28;20027;-60
2023/07/19 07:52:21;;;;;;;4.15;1.60;;;;;;;;;;5097776;28;21079;-62
2023/07/19 07:54:46;;;;;;;;;;;;;;;;;;5100344;27;20027;-60
2023/07/19 07:57:11;;;;;;;4.75;1.67;;;;;;;;;;5103478;27;20537;-60
2023/07/19 07:59:37;;;;;;;4.70;1.77;;;;;;;;;;5103822;27;20487;-61
2023/07/19 08:02:02;;;;;;;5.40;1.50;;;;;;;;;;5103744;27;20521;-62
2023/07/19 08:04:27;;;;;;;;;;;;;;;;;;5101974;27;20028;-61
2023/07/19 08:06:53;;;;;;;3.60;1.40;;;;;;;;;;5102167;27;19944;-60
2023/07/19 08:09:18;;;;;;;4.78;1.63;;;;;;;;;;5101924;27;20097;-60
2023/07/19 08:11:44;;;;;;;3.90;1.40;;;;;;;;;;5102162;27;20421;-59
2023/07/19 08:14:09;;;;;;;;;;;;;;;;;;5102249;27;20094;-60
2023/07/19 08:16:34;;;;;;;4.03;1.60;;;;;;;;;;5101701;27;20390;-60
2023/07/19 08:18:59;;;;;;;5.65;1.90;;;;;;;;;;5102398;27;20029;-62
2023/07/19 08:21:25;;;;;;;;;;;;;;;;;;5102962;27;20324;-61
2023/07/19 08:23:53;;;;;;;3.63;1.60;;;;;;;;;;5101806;27;19916;-60
2023/07/19 08:26:18;;;;;;;4.78;1.83;;;;;;;;;;5101814;27;20035;-60
2023/07/19 08:28:44;;;;;;;3.83;1.50;;;;;;;;;;5101732;27;20031;-59
2023/07/19 08:31:09;;;;;;;;;;;;;;;;;;5102679;27;20537;-60
2023/07/19 08:33:35;;;;;;;5.45;1.45;;;;;;;;;;5100800;27;20479;-62
2023/07/19 08:36:00;;;;;;;5.28;1.88;;;;;;;;;;5101173;27;20032;-59
2023/07/19 08:38:25;;;;;;;4.43;1.73;;;;;;;;;;5100969;27;20558;-60
2023/07/19 08:41:01;;;;;;;4.23;1.70;;;;;;;;;;5101816;27;20494;-62
2023/07/19 08:43:27;;;;;;;6.45;1.90;;;;;;;;;;5100529;27;20019;-62
2023/07/19 08:45:52;;;;;;;5.22;1.90;;;;;;;;;;5101450;27;20501;-61
2023/07/19 08:48:18;;;;;;;5.20;1.85;;;;;;;;;;5101767;27;20482;-60
2023/07/19 08:50:45;;;;;;;5.60;1.95;;;;;;;;;;5102060;27;20024;-60
2023/07/19 08:53:10;;;;;;;4.95;1.67;;;;;;;;;;5100905;27;20024;-61
2023/07/19 08:55:35;;;;;;;4.70;1.70;;;;;;;;;;5102695;27;20034;-58
2023/07/19 08:58:00;;;;;;;;;;;;;;;;;;5100920;27;20031;-59
2023/07/19 09:00:28;;;;;;;4.97;1.60;;;;;;;;;;5101591;27;21162;-60
2023/07/19 09:02:53;;;;;;;4.93;1.70;;;;;;;;;;5099484;27;20065;-63
2023/07/19 09:05:19;;;;;;;5.00;1.70;;;;;;;;;;5099768;27;20034;-61
2023/07/19 09:07:44;;;;;;;;;;;;;;;;;;5100666;27;20046;-59
2023/07/19 09:10:09;;;;;;;6.25;2.00;;;;;;;;;;5101599;27;20006;-61
2023/07/19 09:12:39;;;;;;;7.15;2.20;;;;;;;;;;5099743;27;20032;-59
2023/07/19 09:15:11;;;;;;;4.70;1.98;;;;;;;;;;5100450;27;20088;-61
2023/07/19 09:17:40;;;;;;;5.30;1.95;;;;;;;;;;5100290;27;20035;-61
2023/07/19 09:20:06;;;;;;;5.60;1.95;;;;;;;;;;5101067;27;20031;-62
2023/07/19 09:22:31;;;;;;;5.60;1.80;;;;;;;;;;5100309;27;20024;-59
2023/07/19 09:25:03;;;;;;;;;;;;;;;;;;5101155;27;20032;-62
2023/07/19 09:27:28;;;;;;;6.75;1.80;;;;;;;;;;5099560;27;20446;-62
2023/07/19 09:29:54;;;;;;;;;;;;;;;;;;5101010;27;20041;-62
2023/07/19 09:32:19;;;;;;;5.38;1.88;;;;;;;;;;5104120;27;20366;-61
2023/07/19 09:34:44;;;;;;;;;;;;;;;;;;5100100;27;20034;-60
2023/07/19 09:37:10;;;;;;;6.22;1.90;;;;;;;;;;5099643;27;19911;-60
2023/07/19 09:39:35;;;;;;;;;;;;;;;;;;5102009;27;20034;-61
2023/07/19 09:42:01;;;;;;;5.47;1.90;;;;;;;;;;5098784;27;19916;-60
2023/07/19 09:44:26;;;;;;;;;;;;;;;;;;5101123;27;20597;-61
2023/07/19 09:46:51;;;;;;;5.95;2.00;;;;;;;;;;5100416;27;20114;-61
2023/07/19 09:49:16;;;;;;;;;;;;;;;;;;5099774;27;20110;-61
2023/07/19 09:51:42;;;;;;;4.00;1.88;;;;;;;;;;5100607;27;19921;-61
2023/07/19 09:54:08;;;;;;;;;;;;;;;;;;5100362;27;20027;-60
2023/07/19 09:56:33;;;;;;;5.45;2.38;;;;;;;;;;5100726;27;19996;-60
2023/07/19 09:58:58;;;;;;;4.73;1.87;;;;;;;;;;5099631;27;20049;-62
2023/07/19 10:01:24;;;;;;;;;;;;;;;;;;5102651;27;20020;-61
2023/07/19 10:03:50;;;;;;;5.10;1.77;;;;;;;;;;5100132;27;20025;-59
2023/07/19 10:06:15;;;;;;;5.57;2.05;;;;;;;;;;5100203;27;20031;-62
2023/07/19 10:08:40;;;;;;;;;;;;;;;;;;5100813;27;20072;-61
2023/07/19 10:11:05;;;;;;;5.43;1.80;;;;;;;;;;5100615;27;20385;-61
2023/07/19 10:13:31;;;;;;;3.92;1.80;;;;;;;;;;5098845;27;20224;-62
2023/07/19 10:15:56;;;;;;;;;;;;;;;;;;5099563;27;20035;-62
2023/07/19 10:18:21;;;;;;;4.38;1.90;;;;;;;;;;5099041;27;19963;-61
2023/07/19 10:20:46;;;;;;;;;;;;;;;;;;5100280;27;20020;-62
2023/07/19 10:23:13;;;;;;;6.50;2.05;;;;;;;;;;5098869;27;20383;-60
2023/07/19 10:25:45;;;;;;;5.53;2.20;;;;;;;;;;5098797;27;20063;-60
2023/07/19 10:28:12;;;;;;;5.38;2.10;;;;;;;;;;5099674;27;20015;-60
2023/07/19 10:30:43;;;;;;;5.43;1.90;;;;;;;;;;5100967;27;20024;-60
2023/07/19 10:33:09;;;;;;;4.88;2.17;;;;;;;;;;5098153;27;20019;-62
2023/07/19 10:35:34;;;;;;;;;;;;;;;;;;5103922;27;20097;-59
2023/07/19 10:37:59;;;;;;;4.57;2.10;;;;;;;;;;5101513;27;19916;-61
2023/07/19 10:40:24;;;;;;;;;;;;;;;;;;5099794;27;20027;-62
2023/07/19 10:42:49;;;;;;;7.67;2.40;;;;;;;;;;5102893;27;19916;-60
2023/07/19 10:45:15;;;;;;;5.30;2.08;;;;;;;;;;5098601;27;20028;-62
2023/07/19 10:47:40;;;;;;;;;;;;;;;;;;5098924;27;20019;-57
2023/07/19 10:50:05;;;;;;;6.65;2.30;;;;;;;;;;5098940;27;19998;-63
2023/07/19 10:52:30;;;;;;;;;;;;;;;;;;5099349;27;20020;-61
2023/07/19 10:54:55;;;;;;;5.53;2.63;;;;;;;;;;5098585;27;19915;-59
2023/07/19 10:57:21;;;;;;;;;;;;;;;;;;5101254;27;20192;-60
2023/07/19 10:59:51;;;;;;;5.03;2.15;;;;;;;;;;5101216;27;19908;-61
2023/07/19 11:02:16;;;;;;;7.00;2.35;;;;;;;;;;5106842;27;20421;-60
2023/07/19 11:04:41;;;;;;;;;;;;;;;;;;5102355;27;20091;-60
2023/07/19 11:07:06;;;;;;;4.95;2.10;;;;;;;;;;5102609;27;19962;-62
2023/07/19 11:09:31;;;;;;;5.43;2.30;;;;;;;;;;5099499;27;20019;-59
2023/07/19 11:11:57;;;;;;;4.55;2.20;;;;;;;;;;5098476;27;20118;-59
2023/07/19 11:14:29;;;;;;;3.80;1.70;;;;;;;;;;5098308;27;20150;-60
2023/07/19 11:16:55;;;;;;;6.22;2.30;;;;;;;;;;5098134;27;20016;-60
2023/07/19 11:19:20;;;;;;;;;;;;;;;;;;5098767;27;20037;-60
2023/07/19 11:21:45;;;;;;;4.97;2.30;;;;;;;;;;5098526;27;19919;-59
2023/07/19 11:24:10;;;;;;;8.30;2.23;;;;;;;;;;5097348;27;20032;-61
2023/07/19 11:26:49;;;;;;;5.40;2.13;;;;;;;;;;5099120;27;20498;-62
2023/07/19 11:29:17;;;;;;;4.63;2.13;;;;;;;;;;5097098;28;20110;-63
2023/07/19 11:31:42;;;;;;;4.32;2.08;;;;;;;;;;5097747;28;20047;-61
2023/07/19 11:34:07;;;;;;;;;;;;;;;;;;5098269;28;20561;-61
2023/07/19 11:36:33;;;;;;;12.10;2.28;;;;;;;;;;5097612;27;21606;-61
2023/07/19 11:38:58;;;;;;;;;;;;;;;;;;5098042;28;20027;-60
2023/07/19 11:41:24;;;;;;;5.10;2.03;;;;;;;;;;5098060;27;20313;-60
2023/07/19 11:43:49;;;;;;;;;;;;;;;;;;5097577;28;20020;-60
2023/07/19 11:46:15;;;;;;;5.32;2.00;;;;;;;;;;5097579;28;19976;-62
2023/07/19 11:48:40;;;;;;;6.33;2.00;;;;;;;;;;5097403;28;20038;-60
2023/07/19 11:51:05;;;;;;;6.00;2.20;;;;;;;;;;5098158;27;20035;-62
2023/07/19 11:53:30;;;;;;;5.63;2.70;;;;;;;;;;5097356;28;20031;-61
2023/07/19 11:55:55;;;;;;;;;;;;;;;;;;5098772;28;20538;-61
2023/07/19 11:58:20;;;;;;;4.80;2.17;;;;;;;;;;5097773;28;19908;-60
2023/07/19 12:00:45;;;;;;;;;;;;;;;;;;5099590;27;20619;-60
2023/07/19 12:03:14;;;;;;;7.38;2.25;;;;;;;;;;5096595;28;19920;-61
2023/07/19 12:05:39;;;;;;;5.50;2.30;;;;;;;;;;5098226;28;20055;-59
2023/07/19 12:08:05;;;;;;;;;;;;;;;;;;5098690;28;20480;-62
2023/07/19 12:10:31;;;;;;;5.45;2.55;;;;;;;;;;5099315;28;19941;-60
2023/07/19 12:12:57;;;;;;;7.37;2.40;;;;;;;;;;5098033;27;20031;-60
2023/07/19 12:15:22;;;;;;;5.30;2.17;;;;;;;;;;5097937;27;20043;-61
2023/07/19 12:17:48;;;;;;;4.90;2.13;;;;;;;;;;5098122;28;20046;-62
2023/07/19 12:20:13;;;;;;;6.07;2.17;;;;;;;;;;5097522;27;20523;-60
2023/07/19 12:22:38;;;;;;;;;;;;;;;;;;5098199;28;20031;-62
2023/07/19 12:25:03;;;;;;;5.45;2.35;;;;;;;;;;5097131;27;20333;-59
2023/07/19 12:27:28;;;;;;;;;;;;;;;;;;5098219;28;20054;-60
2023/07/19 12:29:54;;;;;;;4.05;1.98;;;;;;;;;;5097365;28;19915;-60
2023/07/19 12:32:19;;;;;;;5.22;1.90;;;;;;;;;;5097385;28;20019;-60
2023/07/19 12:34:45;;;;;;;4.00;2.10;;;;;;;;;;5096416;27;20035;-61
2023/07/19 12:37:10;;;;;;;5.57;2.00;;;;;;;;;;5098023;27;20031;-62
2023/07/19 12:39:36;;;;;;;4.75;1.77;;;;;;;;;;5097073;28;20391;-60
2023/07/19 12:42:01;;;;;;;7.30;2.10;;;;;;;;;;5100953;27;20024;-62
2023/07/19 12:44:26;;;;;;;6.90;2.30;;;;;;;;;;5099069;27;20047;-61
2023/07/19 12:46:51;;;;;;;6.73;2.30;;;;;;;;;;5102000;27;20031;-59
2023/07/19 12:49:17;;;;;;;6.00;1.90;;;;;;;;;;5101059;27;20035;-61
2023/07/19 12:51:42;;;;;;;5.72;2.20;;;;;;;;;;5100499;27;20019;-62
2023/07/19 12:54:08;;;;;;;4.68;2.10;;;;;;;;;;5100602;27;20031;-59
2023/07/19 12:56:33;;;;;;;4.93;2.10;;;;;;;;;;5100590;27;20066;-61
2023/07/19 12:58:58;;;;;;;5.63;1.87;;;;;;;;;;5099907;27;20457;-60
2023/07/19 13:01:23;;;;;;;4.90;2.20;;;;;;;;;;5101573;27;20442;-61
2023/07/19 13:03:49;;;;;;;5.43;2.25;;;;;;;;;;5100109;27;20046;-60
2023/07/19 13:06:14;;;;;;;5.13;1.87;;;;;;;;;;5100746;27;20055;-60
2023/07/19 13:08:39;;;;;;;5.35;2.10;;;;;;;;;;5101122;27;20028;-61
2023/07/19 13:11:05;;;;;;;6.10;1.80;;;;;;;;;;5101591;27;20379;-62
2023/07/19 13:13:30;;;;;;;4.90;2.10;;;;;;;;;;5101586;27;20036;-62
2023/07/19 13:15:55;;;;;;;8.87;2.77;;;;;;;;;;5104961;27;20023;-61
2023/07/19 13:18:21;;;;;;;7.33;2.50;;;;;;;;;;5103450;27;20152;-60
2023/07/19 13:20:46;;;;;;;6.53;2.30;;;;;;;;;;5100826;27;20064;-62
2023/07/19 13:23:16;;;;;;;7.60;2.00;;;;;;;;;;5098858;27;20080;-61
2023/07/19 13:25:41;;;;;;;6.63;2.03;;;;;;;;;;5100717;27;20023;-61
2023/07/19 13:28:06;;;;;;;4.50;2.10;;;;;;;;;;5100984;27;22928;-62
2023/07/19 13:30:31;;;;;;;7.97;2.10;;;;;;;;;;5102040;27;20107;-62
2023/07/19 13:32:57;;;;;;;5.72;2.08;;;;;;;;;;5101207;27;20479;-63
2023/07/19 13:35:22;;;;;;;5.13;2.00;;;;;;;;;;5101678;27;20027;-60
2023/07/19 13:37:47;;;;;;;4.85;1.95;;;;;;;;;;5101596;27;20386;-61
2023/07/19 13:40:12;;;;;;;6.25;2.22;;;;;;;;;;5100538;27;20173;-62
2023/07/19 13:42:38;;;;;;;4.18;1.92;;;;;;;;;;5100132;27;20027;-61
2023/07/19 13:45:03;;;;;;;4.70;2.00;;;;;;;;;;5098872;27;20147;-65
2023/07/19 13:47:28;;;;;;;4.40;1.70;;;;;;;;;;5100223;27;20019;-60
2023/07/19 13:49:54;;;;;;;6.87;1.97;;;;;;;;;;5099156;27;20064;-62
2023/07/19 13:52:19;;;;;;;4.27;2.07;;;;;;;;;;5098679;27;20039;-62
2023/07/19 13:54:44;;;;;;;7.13;2.00;;;;;;;;;;5099187;27;20452;-60
2023/07/19 13:57:09;;;;;;;9.47;2.10;;;;;;;;;;5099687;27;20431;-61
2023/07/19 13:59:34;;;;;;;5.33;1.90;;;;;;;;;;5099934;27;21568;-62
2023/07/19 14:02:00;;;;;;;7.40;1.73;;;;;;;;;;5099735;27;20051;-62
2023/07/19 14:04:25;;;;;;;4.43;1.60;;;;;;;;;;5104891;27;20023;-60
2023/07/19 14:06:50;;;;;;;6.32;1.92;;;;;;;;;;5098722;27;20392;-60
2023/07/19 14:09:15;;;;;;;4.30;1.80;;;;;;;;;;5098607;27;20024;-62
2023/07/19 14:11:40;;;;;;;6.63;2.07;;;;;;;;;;5099391;27;20767;-62
2023/07/19 14:14:05;;;;;;;;;;;;;;;;;;5107741;27;20492;-62
2023/07/19 14:16:31;;;;;;;5.25;2.00;;;;;;;;;;5099472;27;19926;-61
2023/07/19 14:18:56;;;;;;;4.90;2.00;;;;;;;;;;5099432;27;20032;-62
2023/07/19 14:21:22;;;;;;;4.47;2.00;;;;;;;;;;5099458;27;20022;-62
2023/07/19 14:23:47;;;;;;;5.32;1.85;;;;;;;;;;5099062;27;20502;-62
2023/07/19 14:26:12;;;;;;;5.63;1.93;;;;;;;;;;5098164;27;20027;-61
2023/07/19 14:28:37;;;;;;;;;;;;;;;;;;5099852;27;20020;-61
2023/07/19 14:31:03;;;;;;;6.03;2.00;;;;;;;;;;5099333;27;19915;-61
2023/07/19 14:33:29;;;;;;;;;;;;;;;;;;5100877;27;20031;-62
2023/07/19 14:35:54;;;;;;;6.10;1.98;;;;;;;;;;5111778;28;20048;-62
2023/07/19 14:38:22;;;;;;;;;;;;;;;;;;5111697;28;20148;-62
2023/07/19 14:40:47;;;;;;;4.60;1.88;;;;;;;;;;5111932;28;20311;-62
2023/07/19 14:43:13;;;;;;;;;;;;;;;;;;5130111;27;20019;-61
2023/07/19 14:45:39;;;;;;;6.50;1.90;;;;;;;;;;5132421;27;19926;-62
2023/07/19 14:48:04;;;;;;;5.10;2.15;;;;;;;;;;5132433;27;20072;-62